EGPE/INV METAR and TAF weather

Enter ICAO airport designator
Station Type Date Time Source
EGPE METAR 2022/06/28 23:50 UTC NOAA

EGPE 282350Z AUTO 18003KT 150V230 9999 NCD 14/10 Q1006


Station Type Date Time Source
EGPE Decoded METAR 2022/06/28 23:50 UTC NOAA

Inverness / Dalcross, United Kingdom (EGPE) 57-32N 004-03W 0M
Jun 28, 2022 - 07:50 PM EDT / 2022.06.28 2350 UTC
Wind: from the S (180 degrees) at 3 MPH (3 KT) (direction variable):0
Visibility: greater than 7 mile(s):0
Temperature: 57 F (14 C)
Dew Point: 50 F (10 C)
Relative Humidity: 76%
Pressure (altimeter): 29.71 in. Hg (1006 hPa)
ob: EGPE 282350Z AUTO 18003KT 150V230 9999 NCD 14/10 Q1006
cycle: 0

Station Type Date Time Source
EGPE TAF UTC NOAA

Error!

Example: see airport list